createdAt,value
2023-05-22T00:01:06.851Z,20.50
2023-05-22T00:03:36.486Z,20.50
2023-05-22T00:06:06.238Z,20.50
2023-05-22T00:08:34.378Z,20.50
2023-05-22T00:11:03.582Z,20.40
2023-05-22T00:13:31.707Z,20.40
2023-05-22T00:15:59.768Z,20.40
2023-05-22T00:18:29.187Z,20.30
2023-05-22T00:20:58.033Z,20.30
2023-05-22T00:23:27.909Z,20.20
2023-05-22T00:25:56.007Z,20.20
2023-05-22T00:28:24.113Z,20.20
2023-05-22T00:30:52.294Z,20.10
2023-05-22T00:33:20.454Z,20.10
2023-05-22T00:35:49.939Z,20.10
2023-05-22T00:38:30.565Z,20.00
2023-05-22T00:40:58.836Z,20.00
2023-05-22T00:43:27.084Z,20.00
2023-05-22T00:45:55.236Z,20.00
2023-05-22T00:48:23.450Z,19.90
2023-05-22T00:50:54.998Z,19.90
2023-05-22T00:53:25.321Z,19.90
2023-05-22T00:55:54.851Z,19.90
2023-05-22T00:58:23.915Z,19.90
2023-05-22T01:00:52.377Z,19.80
2023-05-22T01:03:25.986Z,19.80
2023-05-22T01:05:56.803Z,19.80
2023-05-22T01:08:24.976Z,19.80
2023-05-22T01:11:02.005Z,19.80
2023-05-22T01:13:35.604Z,19.70
2023-05-22T01:16:12.240Z,19.70
2023-05-22T01:18:46.248Z,19.70
2023-05-22T01:21:23.116Z,19.70
2023-05-22T01:24:22.058Z,19.70
2023-05-22T01:27:20.541Z,19.70
2023-05-22T01:30:03.073Z,19.70
2023-05-22T01:32:35.306Z,19.60
2023-05-22T01:35:08.090Z,19.70
2023-05-22T01:37:37.247Z,19.60
2023-05-22T01:40:07.473Z,19.70
2023-05-22T01:42:36.293Z,19.60
2023-05-22T01:45:04.497Z,19.60
2023-05-22T01:47:35.661Z,19.60
2023-05-22T01:50:04.965Z,19.60
2023-05-22T01:52:53.426Z,19.60
2023-05-22T01:55:29.248Z,19.60
2023-05-22T01:58:04.033Z,19.60
2023-05-22T02:00:33.549Z,19.50
2023-05-22T02:03:08.026Z,19.50
2023-05-22T02:05:41.307Z,19.50
2023-05-22T02:08:10.043Z,19.50
2023-05-22T02:10:39.994Z,19.50
2023-05-22T02:13:08.413Z,19.50
2023-05-22T02:15:36.707Z,19.40
2023-05-22T02:18:12.954Z,19.40
2023-05-22T02:20:41.535Z,19.40
2023-05-22T02:23:09.675Z,19.40
2023-05-22T02:25:37.814Z,19.40
2023-05-22T02:28:06.089Z,19.30
2023-05-22T02:30:34.165Z,19.30
2023-05-22T02:33:05.531Z,19.30
2023-05-22T02:35:35.033Z,19.30
2023-05-22T02:38:03.523Z,19.30
2023-05-22T02:40:31.611Z,19.30
2023-05-22T02:42:59.691Z,19.30
2023-05-22T02:45:27.899Z,19.20
2023-05-22T02:47:56.185Z,19.20
2023-05-22T02:50:24.288Z,19.20
2023-05-22T02:52:53.742Z,19.20
2023-05-22T02:55:22.762Z,19.20
2023-05-22T02:57:50.874Z,19.20
2023-05-22T03:00:20.104Z,19.10
2023-05-22T03:02:48.321Z,19.10
2023-05-22T03:05:17.658Z,19.10
2023-05-22T03:07:48.816Z,19.10
2023-05-22T03:10:18.861Z,19.10
2023-05-22T03:12:47.041Z,19.00
2023-05-22T03:15:15.233Z,19.00
2023-05-22T03:17:43.330Z,19.00
2023-05-22T03:20:17.102Z,19.00
2023-05-22T03:22:45.775Z,19.00
2023-05-22T03:25:13.898Z,19.00
2023-05-22T03:27:43.389Z,19.00
2023-05-22T03:30:12.245Z,18.90
2023-05-22T03:32:40.992Z,18.90
2023-05-22T03:35:10.244Z,18.90
2023-05-22T03:37:38.316Z,18.90
2023-05-22T03:40:07.879Z,18.90
2023-05-22T03:42:36.028Z,18.90
2023-05-22T03:45:06.366Z,18.80
2023-05-22T03:47:34.453Z,18.80
2023-05-22T03:50:02.664Z,18.80
2023-05-22T03:52:30.721Z,18.80
2023-05-22T03:54:58.859Z,18.80
2023-05-22T03:57:26.940Z,18.80
2023-05-22T03:59:55.013Z,18.80
2023-05-22T04:02:26.360Z,18.70
2023-05-22T04:04:54.636Z,18.70
2023-05-22T04:07:24.065Z,18.70
2023-05-22T04:09:52.135Z,18.70
2023-05-22T04:12:20.328Z,18.70
2023-05-22T04:14:48.399Z,18.70
2023-05-22T04:17:16.503Z,18.70
2023-05-22T04:19:45.920Z,18.70
2023-05-22T04:22:13.995Z,18.70
2023-05-22T04:24:42.084Z,18.70
2023-05-22T04:27:10.160Z,18.70
2023-05-22T04:29:38.235Z,18.70
2023-05-22T04:32:10.537Z,18.70
2023-05-22T04:34:38.699Z,18.70
2023-05-22T04:37:10.172Z,18.70
2023-05-22T04:39:41.217Z,18.70
2023-05-22T04:42:09.432Z,18.70
2023-05-22T04:44:38.274Z,18.70
2023-05-22T04:47:08.228Z,18.80
2023-05-22T04:49:36.416Z,18.80
2023-05-22T04:52:06.055Z,18.80
2023-05-22T04:54:36.194Z,18.90
2023-05-22T04:57:05.045Z,18.90
2023-05-22T04:59:33.486Z,18.90
2023-05-22T05:02:01.575Z,19.00
2023-05-22T05:04:29.633Z,19.00
2023-05-22T05:06:57.851Z,19.00
2023-05-22T05:09:26.046Z,19.10
2023-05-22T05:11:56.364Z,19.10
2023-05-22T05:14:24.535Z,19.10
2023-05-22T05:16:53.214Z,19.20
2023-05-22T05:19:22.196Z,19.20
2023-05-22T05:21:50.601Z,19.20
2023-05-22T05:24:18.772Z,19.20
2023-05-22T05:26:47.032Z,19.30
2023-05-22T05:29:16.565Z,19.30
2023-05-22T05:31:44.748Z,19.30
2023-05-22T05:34:13.522Z,19.40
2023-05-22T05:36:42.204Z,19.40
2023-05-22T05:39:10.335Z,19.50
2023-05-22T05:41:38.392Z,19.50
2023-05-22T05:44:06.615Z,19.60
2023-05-22T05:46:36.703Z,19.60
2023-05-22T05:49:11.161Z,19.70
2023-05-22T05:51:39.555Z,19.80
2023-05-22T05:54:07.710Z,19.90
2023-05-22T05:56:35.822Z,20.00
2023-05-22T05:59:04.026Z,20.00
2023-05-22T06:01:35.323Z,20.10
2023-05-22T06:04:05.529Z,20.20
2023-05-22T06:06:35.744Z,20.20
2023-05-22T06:09:05.576Z,20.30
2023-05-22T06:11:33.777Z,20.40
2023-05-22T06:14:02.993Z,20.50
2023-05-22T06:16:31.312Z,20.50
2023-05-22T06:19:00.234Z,20.60
2023-05-22T06:21:29.762Z,20.70
2023-05-22T06:23:58.727Z,20.80
2023-05-22T06:26:27.713Z,20.90
2023-05-22T06:28:55.889Z,20.90
2023-05-22T06:31:24.534Z,21.00
2023-05-22T06:33:52.783Z,21.10
2023-05-22T06:36:21.051Z,21.20
2023-05-22T06:38:51.918Z,21.30
2023-05-22T06:41:20.087Z,21.40
2023-05-22T06:43:48.312Z,21.50
2023-05-22T06:46:16.395Z,21.60
2023-05-22T06:48:44.534Z,21.60
2023-05-22T06:51:12.832Z,21.70
2023-05-22T06:53:40.912Z,21.80
2023-05-22T06:56:10.405Z,21.90
2023-05-22T06:58:38.498Z,22.00
2023-05-22T07:01:07.784Z,22.10
2023-05-22T07:03:35.964Z,22.20
2023-05-22T07:06:04.477Z,22.30
2023-05-22T07:08:32.577Z,22.40
2023-05-22T07:11:01.953Z,22.50
2023-05-22T07:13:32.182Z,22.60
2023-05-22T07:16:00.339Z,22.70
2023-05-22T07:18:28.433Z,22.80
2023-05-22T07:20:56.517Z,22.90
2023-05-22T07:23:26.218Z,23.00
2023-05-22T07:25:54.682Z,23.10
2023-05-22T07:28:22.804Z,23.20
2023-05-22T07:30:52.237Z,23.30
2023-05-22T07:33:20.428Z,23.40
2023-05-22T07:35:48.487Z,23.60
2023-05-22T07:38:16.586Z,23.70
2023-05-22T07:40:44.751Z,23.80
2023-05-22T07:43:12.839Z,23.90
2023-05-22T07:45:41.185Z,24.00
2023-05-22T07:48:11.918Z,24.10
2023-05-22T07:50:44.729Z,24.20
2023-05-22T07:53:13.102Z,24.30
2023-05-22T07:55:41.474Z,24.40
2023-05-22T07:58:10.888Z,24.50
2023-05-22T08:00:39.105Z,24.60
2023-05-22T08:03:07.409Z,24.70
2023-05-22T08:05:37.005Z,24.80
2023-05-22T08:08:05.511Z,24.90
2023-05-22T08:10:47.028Z,25.00
2023-05-22T08:13:21.697Z,25.00
2023-05-22T08:15:49.777Z,25.20
2023-05-22T08:18:17.884Z,25.30
2023-05-22T08:20:47.833Z,25.40
2023-05-22T08:23:15.931Z,25.40
2023-05-22T08:25:44.075Z,25.50
2023-05-22T08:28:12.166Z,25.60
2023-05-22T08:30:40.459Z,25.70
2023-05-22T08:33:08.716Z,25.80
2023-05-22T08:35:36.950Z,25.90
2023-05-22T08:38:06.408Z,25.90
2023-05-22T08:40:37.701Z,26.00
2023-05-22T08:43:07.066Z,26.10
2023-05-22T08:45:35.546Z,26.20
2023-05-22T08:48:06.618Z,26.30
2023-05-22T08:50:38.763Z,26.30
2023-05-22T08:53:12.501Z,26.40
2023-05-22T08:55:41.194Z,26.40
2023-05-22T08:58:11.520Z,26.50
2023-05-22T09:00:39.949Z,26.50
2023-05-22T09:03:10.134Z,26.50
2023-05-22T09:05:39.236Z,26.60
2023-05-22T09:08:19.937Z,26.60
2023-05-22T09:10:49.335Z,26.60
2023-05-22T09:13:26.719Z,26.60
2023-05-22T09:15:55.983Z,26.60
2023-05-22T09:18:27.913Z,26.50
2023-05-22T09:20:59.059Z,26.60
2023-05-22T09:23:29.610Z,26.60
2023-05-22T09:25:59.231Z,26.60
2023-05-22T09:28:29.010Z,26.70
2023-05-22T09:30:57.359Z,26.70
2023-05-22T09:33:26.063Z,26.70
2023-05-22T09:35:54.676Z,26.80
2023-05-22T09:38:24.432Z,26.90
2023-05-22T09:40:56.143Z,26.90
2023-05-22T09:43:25.851Z,27.00
2023-05-22T09:46:04.284Z,27.00
2023-05-22T09:48:36.646Z,27.10
2023-05-22T09:51:07.435Z,27.20
2023-05-22T09:53:37.203Z,27.30
2023-05-22T09:56:14.681Z,27.40
2023-05-22T09:58:45.998Z,27.50
2023-05-22T10:01:16.364Z,27.50
2023-05-22T10:03:47.323Z,27.60
2023-05-22T10:06:19.874Z,27.70
2023-05-22T10:08:55.532Z,27.70
2023-05-22T10:11:26.835Z,27.80
2023-05-22T10:13:58.562Z,27.90
2023-05-22T10:16:26.892Z,28.00
2023-05-22T10:18:56.247Z,28.00
2023-05-22T10:21:24.630Z,28.00
2023-05-22T10:23:53.441Z,28.00
2023-05-22T10:26:22.375Z,28.00
2023-05-22T10:28:59.206Z,27.90
2023-05-22T10:31:33.602Z,27.90
2023-05-22T10:34:07.507Z,27.90
2023-05-22T10:36:50.354Z,27.90
2023-05-22T10:39:36.081Z,27.90
2023-05-22T10:42:04.538Z,27.90
2023-05-22T10:44:35.970Z,27.90
2023-05-22T10:47:10.321Z,27.90
2023-05-22T10:49:39.154Z,27.90
2023-05-22T10:52:10.033Z,28.00
2023-05-22T10:54:42.413Z,28.00
2023-05-22T10:57:16.198Z,28.10
2023-05-22T10:59:48.204Z,28.10
2023-05-22T11:02:23.708Z,28.20
2023-05-22T11:04:52.357Z,28.30
2023-05-22T11:07:20.762Z,28.30
2023-05-22T11:09:49.099Z,28.40
2023-05-22T11:12:21.745Z,28.40
2023-05-22T11:14:53.051Z,28.50
2023-05-22T11:17:24.558Z,28.50
2023-05-22T11:20:00.919Z,28.60
2023-05-22T11:22:37.031Z,28.60
2023-05-22T11:25:08.760Z,28.70
2023-05-22T11:27:37.685Z,28.70
2023-05-22T11:30:09.543Z,28.70
2023-05-22T11:32:38.214Z,28.70
2023-05-22T11:35:10.468Z,28.70
2023-05-22T11:37:42.312Z,28.70
2023-05-22T11:40:11.657Z,28.70
2023-05-22T11:42:40.186Z,28.80
2023-05-22T11:45:11.033Z,28.80
2023-05-22T11:47:39.739Z,28.80
2023-05-22T11:50:11.013Z,28.90
2023-05-22T11:52:40.115Z,28.80
2023-05-22T11:55:09.866Z,28.90
2023-05-22T11:57:39.026Z,28.90
2023-05-22T12:00:10.883Z,28.80
2023-05-22T12:02:39.522Z,28.70
2023-05-22T12:05:10.260Z,28.70
2023-05-22T12:07:39.102Z,28.70
2023-05-22T12:10:08.311Z,28.70
2023-05-22T12:12:36.550Z,28.70
2023-05-22T12:15:07.567Z,28.70
2023-05-22T12:17:39.037Z,28.70
2023-05-22T12:20:08.321Z,28.70
2023-05-22T12:22:42.376Z,28.70
2023-05-22T12:25:16.428Z,28.60
2023-05-22T12:27:45.483Z,28.70
2023-05-22T12:30:15.694Z,28.70
2023-05-22T12:32:51.519Z,28.80
2023-05-22T12:35:20.266Z,28.70
2023-05-22T12:37:52.287Z,28.80
2023-05-22T12:40:20.861Z,28.80
2023-05-22T12:42:49.878Z,28.90
2023-05-22T12:45:18.812Z,28.90
2023-05-22T12:47:47.229Z,28.90
2023-05-22T12:50:16.934Z,29.00
2023-05-22T12:52:45.230Z,29.00
2023-05-22T12:55:13.478Z,29.00
2023-05-22T12:57:41.768Z,29.00
2023-05-22T13:00:11.283Z,29.00
2023-05-22T13:02:39.677Z,29.00
2023-05-22T13:05:08.532Z,29.10
2023-05-22T13:07:38.348Z,29.00
2023-05-22T13:10:07.468Z,29.00
2023-05-22T13:12:35.740Z,29.00
2023-05-22T13:15:04.491Z,29.00
2023-05-22T13:17:32.843Z,29.00
2023-05-22T13:20:01.373Z,29.00
2023-05-22T13:22:29.615Z,29.00
2023-05-22T13:24:59.134Z,29.00
2023-05-22T13:27:28.134Z,29.00
2023-05-22T13:29:56.359Z,29.00
2023-05-22T13:32:24.655Z,29.00
2023-05-22T13:34:52.870Z,29.00
2023-05-22T13:37:21.322Z,29.00
2023-05-22T13:39:49.477Z,28.90
2023-05-22T13:42:19.169Z,28.90
2023-05-22T13:44:47.409Z,28.90
2023-05-22T13:47:15.696Z,28.90
2023-05-22T13:49:43.929Z,28.90
2023-05-22T13:52:12.038Z,28.80
2023-05-22T13:54:40.176Z,28.80
2023-05-22T13:57:08.418Z,28.80
2023-05-22T13:59:38.002Z,28.80
2023-05-22T14:02:06.876Z,28.80
2023-05-22T14:04:35.126Z,28.80
2023-05-22T14:07:03.413Z,28.80
2023-05-22T14:09:31.746Z,28.80
2023-05-22T14:12:00.067Z,28.80
2023-05-22T14:14:28.364Z,28.80
2023-05-22T14:16:57.987Z,28.70
2023-05-22T14:19:26.372Z,28.80
2023-05-22T14:21:54.646Z,28.70
2023-05-22T14:24:22.943Z,28.70
2023-05-22T14:26:51.274Z,28.70
2023-05-22T14:29:19.752Z,28.70
2023-05-22T14:31:51.521Z,28.70
2023-05-22T14:34:21.789Z,28.70
2023-05-22T14:36:50.038Z,28.70
2023-05-22T14:39:18.283Z,28.70
2023-05-22T14:41:46.496Z,28.70
2023-05-22T14:44:14.767Z,28.60
2023-05-22T14:46:43.175Z,28.70
2023-05-22T14:49:11.786Z,28.70
2023-05-22T14:51:41.416Z,28.70
2023-05-22T14:54:10.267Z,28.80
2023-05-22T14:56:38.562Z,28.80
2023-05-22T14:59:06.942Z,28.80
2023-05-22T15:01:35.684Z,28.80
2023-05-22T15:04:04.054Z,28.80
2023-05-22T15:06:32.938Z,28.80
2023-05-22T15:09:02.636Z,28.70
2023-05-22T15:11:31.037Z,28.60
2023-05-22T15:13:59.301Z,28.50
2023-05-22T15:16:28.053Z,28.40
2023-05-22T15:18:56.509Z,28.30
2023-05-22T15:21:25.731Z,28.10
2023-05-22T15:23:54.071Z,28.00
2023-05-22T15:26:23.832Z,27.90
2023-05-22T15:28:52.120Z,27.70
2023-05-22T15:31:20.563Z,27.60
2023-05-22T15:33:48.846Z,27.40
2023-05-22T15:36:17.071Z,27.30
2023-05-22T15:38:45.337Z,27.20
2023-05-22T15:41:13.647Z,27.00
2023-05-22T15:43:43.316Z,26.90
2023-05-22T15:46:14.462Z,26.80
2023-05-22T15:48:42.953Z,26.70
2023-05-22T15:51:11.237Z,26.70
2023-05-22T15:53:39.834Z,26.60
2023-05-22T15:56:08.468Z,26.60
2023-05-22T15:58:36.518Z,26.50
2023-05-22T16:01:07.923Z,26.50
2023-05-22T16:03:35.975Z,26.50
2023-05-22T16:06:04.300Z,26.50
2023-05-22T16:08:32.393Z,26.40
2023-05-22T16:11:01.685Z,26.50
2023-05-22T16:13:29.886Z,26.40
2023-05-22T16:15:57.971Z,26.40
2023-05-22T16:18:27.442Z,26.40
2023-05-22T16:20:55.538Z,26.40
2023-05-22T16:23:23.581Z,26.40
2023-05-22T16:25:51.643Z,26.40
2023-05-22T16:28:19.686Z,26.40
2023-05-22T16:30:47.749Z,26.40
2023-05-22T16:33:15.802Z,26.50
2023-05-22T16:35:46.964Z,26.50
2023-05-22T16:38:15.198Z,26.50
2023-05-22T16:40:43.288Z,26.50
2023-05-22T16:43:12.580Z,26.50
2023-05-22T16:45:46.348Z,26.50
2023-05-22T16:48:14.609Z,26.60
2023-05-22T16:50:44.187Z,26.60
2023-05-22T16:53:12.272Z,26.60
2023-05-22T16:55:40.813Z,26.70
2023-05-22T16:58:11.541Z,26.70
2023-05-22T17:00:40.683Z,26.70
2023-05-22T17:03:09.334Z,26.70
2023-05-22T17:05:38.604Z,26.80
2023-05-22T17:08:08.222Z,26.80
2023-05-22T17:10:36.482Z,26.80
2023-05-22T17:13:04.867Z,26.80
2023-05-22T17:15:33.055Z,26.80
2023-05-22T17:18:01.227Z,26.80
2023-05-22T17:20:29.914Z,26.80
2023-05-22T17:22:58.081Z,26.80
2023-05-22T17:25:27.549Z,26.80
2023-05-22T17:27:55.648Z,26.80
2023-05-22T17:30:25.257Z,26.80
2023-05-22T17:32:56.736Z,26.80
2023-05-22T17:35:24.942Z,26.80
2023-05-22T17:37:53.099Z,26.70
2023-05-22T17:40:32.571Z,26.70
2023-05-22T17:43:09.769Z,26.70
2023-05-22T17:45:37.967Z,26.60
2023-05-22T17:48:07.812Z,26.60
2023-05-22T17:50:36.063Z,26.60
2023-05-22T17:53:04.139Z,26.50
2023-05-22T17:55:32.213Z,26.40
2023-05-22T17:58:00.540Z,26.40
2023-05-22T18:00:29.994Z,26.40
2023-05-22T18:02:58.129Z,26.30
2023-05-22T18:05:26.392Z,26.30
2023-05-22T18:07:54.477Z,26.30
2023-05-22T18:10:24.972Z,26.20
2023-05-22T18:12:53.148Z,26.20
2023-05-22T18:15:21.234Z,26.20
2023-05-22T18:17:50.692Z,26.10
2023-05-22T18:20:19.996Z,26.10
2023-05-22T18:22:48.069Z,26.00
2023-05-22T18:25:16.130Z,25.90
2023-05-22T18:27:44.264Z,25.90
2023-05-22T18:30:13.001Z,25.90
2023-05-22T18:32:41.106Z,25.80
2023-05-22T18:35:11.011Z,25.80
2023-05-22T18:37:39.238Z,25.70
2023-05-22T18:40:09.309Z,25.70
2023-05-22T18:42:37.574Z,25.70
2023-05-22T18:45:06.932Z,25.60
2023-05-22T18:47:35.316Z,25.60
2023-05-22T18:50:03.971Z,25.50
2023-05-22T18:52:33.416Z,25.40
2023-05-22T18:55:01.480Z,25.40
2023-05-22T18:57:29.577Z,25.30
2023-05-22T18:59:57.680Z,25.20
2023-05-22T19:02:26.121Z,25.20
2023-05-22T19:04:54.301Z,25.10
2023-05-22T19:07:22.469Z,25.00
2023-05-22T19:09:51.912Z,25.00
2023-05-22T19:12:20.022Z,24.90
2023-05-22T19:14:49.626Z,24.80
2023-05-22T19:17:17.728Z,24.80
2023-05-22T19:19:46.558Z,24.70
2023-05-22T19:22:17.660Z,24.60
2023-05-22T19:24:46.079Z,24.60
2023-05-22T19:27:15.559Z,24.50
2023-05-22T19:29:43.639Z,24.50
2023-05-22T19:32:11.732Z,24.40
2023-05-22T19:34:39.872Z,24.30
2023-05-22T19:37:09.465Z,24.30
2023-05-22T19:39:37.526Z,24.30
2023-05-22T19:42:08.128Z,24.20
2023-05-22T19:44:37.617Z,24.10
2023-05-22T19:47:05.932Z,24.10
2023-05-22T19:49:36.806Z,24.00
2023-05-22T19:52:05.776Z,23.90
2023-05-22T19:54:33.981Z,23.90
2023-05-22T19:57:02.111Z,23.80
2023-05-22T19:59:30.185Z,23.70
2023-05-22T20:01:59.689Z,23.70
2023-05-22T20:04:27.993Z,23.70
2023-05-22T20:06:58.685Z,23.60
2023-05-22T20:09:27.595Z,23.60
2023-05-22T20:11:55.702Z,23.60
2023-05-22T20:14:23.799Z,23.60
2023-05-22T20:16:52.055Z,23.50
2023-05-22T20:19:21.604Z,23.50
2023-05-22T20:21:50.767Z,23.50
2023-05-22T20:24:20.876Z,23.50
2023-05-22T20:26:49.368Z,23.50
2023-05-22T20:29:17.730Z,23.50
2023-05-22T20:31:47.106Z,23.40
2023-05-22T20:34:15.576Z,23.50
2023-05-22T20:36:46.581Z,23.40
2023-05-22T20:39:14.928Z,23.50
2023-05-22T20:41:43.068Z,23.50
2023-05-22T20:44:11.150Z,23.50
2023-05-22T20:46:39.225Z,23.50
2023-05-22T20:49:07.305Z,23.50
2023-05-22T20:51:35.436Z,23.50
2023-05-22T20:54:05.251Z,23.50
2023-05-22T20:56:33.416Z,23.50
2023-05-22T20:59:01.506Z,23.50
2023-05-22T21:01:29.619Z,23.50
2023-05-22T21:03:57.736Z,23.50
2023-05-22T21:06:25.940Z,23.50
2023-05-22T21:08:58.915Z,23.50
2023-05-22T21:11:28.669Z,23.50
2023-05-22T21:13:56.725Z,23.50
2023-05-22T21:16:25.763Z,23.50
2023-05-22T21:18:53.887Z,23.50
2023-05-22T21:21:22.032Z,23.50
2023-05-22T21:23:50.821Z,23.50
2023-05-22T21:26:22.210Z,23.50
2023-05-22T21:28:51.817Z,23.50
2023-05-22T21:31:19.973Z,23.50
2023-05-22T21:33:48.124Z,23.50
2023-05-22T21:36:16.236Z,23.50
2023-05-22T21:38:44.296Z,23.50
2023-05-22T21:41:12.652Z,23.50
2023-05-22T21:43:40.757Z,23.40
2023-05-22T21:46:11.290Z,23.40
2023-05-22T21:48:39.361Z,23.40
2023-05-22T21:51:07.481Z,23.30
2023-05-22T21:53:35.561Z,23.30
2023-05-22T21:56:04.757Z,23.30
2023-05-22T21:58:32.875Z,23.20
2023-05-22T22:01:00.968Z,23.20
2023-05-22T22:03:30.523Z,23.20
2023-05-22T22:05:58.628Z,23.20
2023-05-22T22:08:28.275Z,23.20
2023-05-22T22:10:57.694Z,23.10
2023-05-22T22:13:25.794Z,23.10
2023-05-22T22:15:54.931Z,23.00
2023-05-22T22:18:23.027Z,23.00
2023-05-22T22:20:54.084Z,23.00
2023-05-22T22:23:22.860Z,22.90
2023-05-22T22:25:51.118Z,22.90
2023-05-22T22:28:19.203Z,22.90
2023-05-22T22:30:47.864Z,22.90
2023-05-22T22:33:16.011Z,22.80
2023-05-22T22:35:44.218Z,22.80
2023-05-22T22:38:13.642Z,22.80
2023-05-22T22:40:42.462Z,22.70
2023-05-22T22:43:10.932Z,22.70
2023-05-22T22:45:39.833Z,22.70
2023-05-22T22:48:08.271Z,22.70
2023-05-22T22:50:36.480Z,22.70
2023-05-22T22:53:04.605Z,22.60
2023-05-22T22:55:34.106Z,22.60
2023-05-22T22:58:02.924Z,22.60
2023-05-22T23:00:31.164Z,22.50
2023-05-22T23:03:00.377Z,22.50
2023-05-22T23:05:28.519Z,22.50
2023-05-22T23:07:58.322Z,22.40
2023-05-22T23:10:26.380Z,22.40
2023-05-22T23:12:55.962Z,22.30
2023-05-22T23:15:24.714Z,22.30
2023-05-22T23:17:52.792Z,22.20
2023-05-22T23:20:20.890Z,22.20
2023-05-22T23:22:48.979Z,22.20
2023-05-22T23:25:17.114Z,22.10
2023-05-22T23:27:45.265Z,22.10
2023-05-22T23:30:15.045Z,22.00
2023-05-22T23:32:43.140Z,21.90
2023-05-22T23:35:11.422Z,21.90
2023-05-22T23:37:39.496Z,21.90
2023-05-22T23:40:09.131Z,21.80
2023-05-22T23:42:37.446Z,21.80
2023-05-22T23:45:06.363Z,21.70
2023-05-22T23:47:35.833Z,21.60
2023-05-22T23:50:04.055Z,21.60
2023-05-22T23:52:32.189Z,21.50
2023-05-22T23:55:00.718Z,21.50
2023-05-22T23:57:28.839Z,21.40
2023-05-22T23:59:56.897Z,21.40
